Time;durP1;ratioP1;P1;durP2;ratioP2;P2;SDS_P1;SDS_P2;PMS_P1;PMS_P2;Temp;Humidity;BMP_temperature;BMP_pressure;BME280_temperature;BME280_humidity;BME280_pressure;Samples;Min_cycle;Max_cycle;Signal;HPM_P1;HPM_P2
2023/08/04 00:01:24;;;;;;;0.65;0.43;;;16.00;99.90;;;;;;5057561;28;20071;-67
2023/08/04 00:03:49;;;;;;;1.23;0.70;;;16.00;99.90;;;;;;5051349;28;20048;-67
2023/08/04 00:06:15;;;;;;;3.60;0.60;;;15.90;99.90;;;;;;5050797;28;20045;-67
2023/08/04 00:08:41;;;;;;;1.90;0.60;;;15.90;99.90;;;;;;5051470;28;20044;-67
2023/08/04 00:11:06;;;;;;;1.70;0.52;;;15.80;99.90;;;;;;5051424;28;20581;-67
2023/08/04 00:13:32;;;;;;;0.77;0.40;;;15.70;99.90;;;;;;5034197;28;20492;-67
2023/08/04 00:16:08;;;;;;;1.23;0.57;;;15.70;99.90;;;;;;5052220;28;20060;-67
2023/08/04 00:18:34;;;;;;;1.77;0.70;;;15.70;99.90;;;;;;5051140;28;20504;-67
2023/08/04 00:21:00;;;;;;;0.88;0.40;;;15.70;99.90;;;;;;5050377;28;20065;-67
2023/08/04 00:23:26;;;;;;;3.50;0.60;;;15.70;99.90;;;;;;5051130;28;20086;-67
2023/08/04 00:25:52;;;;;;;1.00;0.50;;;15.70;99.90;;;;;;5050950;28;20531;-67
2023/08/04 00:28:17;;;;;;;1.35;0.40;;;15.70;99.90;;;;;;5050250;28;20044;-67
2023/08/04 00:30:43;;;;;;;2.30;0.40;;;15.70;99.90;;;;;;5050684;28;20041;-67
2023/08/04 00:33:09;;;;;;;1.10;0.40;;;15.80;99.90;;;;;;5057552;28;20036;-67
2023/08/04 00:35:35;;;;;;;0.77;0.47;;;15.70;99.90;;;;;;5070151;28;20059;-67
2023/08/04 00:38:01;;;;;;;0.60;0.35;;;15.70;99.90;;;;;;5072238;28;20051;-66
2023/08/04 00:40:30;;;;;;;3.22;0.57;;;15.70;99.90;;;;;;5070621;28;20052;-67
2023/08/04 00:42:55;;;;;;;0.98;0.68;;;15.60;99.90;;;;;;5071220;28;20037;-67
2023/08/04 00:45:28;;;;;;;1.10;0.30;;;15.60;99.90;;;;;;5044174;28;20119;-67
2023/08/04 00:47:54;;;;;;;0.60;0.30;;;15.50;99.90;;;;;;5051389;28;20063;-66
2023/08/04 00:50:21;;;;;;;0.63;0.40;;;15.50;99.90;;;;;;5051903;28;20590;-67
2023/08/04 00:52:48;;;;;;;1.05;0.30;;;15.50;99.90;;;;;;5033752;28;20053;-67
2023/08/04 00:55:15;;;;;;;4.03;0.60;;;15.50;99.90;;;;;;5051060;28;20049;-67
2023/08/04 00:57:41;;;;;;;0.85;0.32;;;15.50;99.90;;;;;;5050396;28;20102;-67
2023/08/04 01:00:08;;;;;;;0.98;0.20;;;15.50;99.90;;;;;;5043250;28;20036;-67
2023/08/04 01:02:34;;;;;;;0.95;0.30;;;15.50;99.90;;;;;;5049839;28;20040;-66
2023/08/04 01:05:01;;;;;;;2.60;0.30;;;15.50;99.90;;;;;;5050077;28;20053;-66
2023/08/04 01:07:57;;;;;;;2.65;0.75;;;15.50;99.90;;;;;;5051444;28;20037;-66
2023/08/04 01:10:44;;;;;;;3.08;0.60;;;15.50;99.90;;;;;;5049506;28;20041;-67
2023/08/04 01:13:13;;;;;;;0.38;0.30;;;15.50;99.90;;;;;;5031465;28;20363;-67
2023/08/04 01:15:41;;;;;;;1.00;0.30;;;15.50;99.90;;;;;;5034140;28;20132;-66
2023/08/04 01:18:06;;;;;;;0.32;0.30;;;15.50;99.90;;;;;;5050121;28;20059;-67
2023/08/04 01:20:32;;;;;;;2.30;0.30;;;15.50;99.90;;;;;;5051027;28;20037;-66
2023/08/04 01:22:58;;;;;;;0.73;0.55;;;15.60;99.90;;;;;;5049373;28;20037;-66
2023/08/04 01:25:29;;;;;;;1.05;0.35;;;15.60;99.90;;;;;;5049686;28;20175;-66
2023/08/04 01:28:00;;;;;;;0.65;0.35;;;15.60;99.90;;;;;;5049732;28;20048;-66
2023/08/04 01:30:28;;;;;;;0.73;0.30;;;15.60;99.90;;;;;;5063939;28;20762;-67
2023/08/04 01:32:54;;;;;;;1.67;0.70;;;15.60;99.90;;;;;;5053181;28;20565;-66
2023/08/04 01:35:20;;;;;;;0.32;0.32;;;15.60;99.90;;;;;;5069334;28;20040;-67
2023/08/04 01:37:46;;;;;;;1.27;0.60;;;15.60;99.90;;;;;;5069186;28;20047;-66
2023/08/04 01:40:12;;;;;;;0.90;0.35;;;15.70;99.90;;;;;;5070775;28;20036;-66
2023/08/04 01:42:39;;;;;;;0.60;0.28;;;15.70;99.90;;;;;;5051234;28;20045;-66
2023/08/04 01:45:05;;;;;;;0.38;0.17;;;15.60;99.90;;;;;;5050203;28;20055;-66
2023/08/04 01:47:31;;;;;;;1.38;0.30;;;15.60;99.90;;;;;;5050770;28;20055;-66
2023/08/04 01:49:56;;;;;;;0.47;0.30;;;15.60;99.90;;;;;;5050731;28;20044;-66
2023/08/04 01:52:22;;;;;;;2.85;0.30;;;15.50;99.90;;;;;;5048439;28;20532;-67
2023/08/04 01:54:48;;;;;;;0.22;0.20;;;15.50;99.90;;;;;;5049313;28;20045;-66
2023/08/04 01:57:14;;;;;;;0.98;0.40;;;15.50;99.90;;;;;;5048881;28;20040;-66
2023/08/04 01:59:40;;;;;;;1.95;0.60;;;15.50;99.90;;;;;;5059119;28;20040;-67
2023/08/04 02:02:07;;;;;;;0.20;0.10;;;15.50;99.90;;;;;;5049668;28;20041;-67
2023/08/04 02:04:33;;;;;;;0.93;0.40;;;15.50;99.90;;;;;;5049448;28;20053;-66
2023/08/04 02:06:58;;;;;;;0.65;0.35;;;15.50;99.90;;;;;;5048688;28;20047;-66
2023/08/04 02:09:27;;;;;;;0.98;0.47;;;15.50;99.90;;;;;;5049143;28;20037;-67
2023/08/04 02:11:54;;;;;;;0.73;0.22;;;15.50;99.90;;;;;;5048780;28;20086;-67
2023/08/04 02:14:21;;;;;;;0.20;0.10;;;15.50;99.90;;;;;;5049242;28;20374;-66
2023/08/04 02:16:47;;;;;;;0.57;0.30;;;15.50;99.90;;;;;;5049225;28;20056;-66
2023/08/04 02:19:12;;;;;;;0.95;0.38;;;15.50;99.90;;;;;;5048368;28;20036;-67
2023/08/04 02:21:38;;;;;;;0.28;0.13;;;15.50;99.90;;;;;;5049122;28;20118;-67
2023/08/04 02:24:04;;;;;;;0.60;0.30;;;15.50;99.90;;;;;;5049120;28;20076;-66
2023/08/04 02:26:30;;;;;;;0.38;0.20;;;15.50;99.90;;;;;;5060517;28;20041;-66
2023/08/04 02:28:57;;;;;;;0.30;0.20;;;15.50;99.90;;;;;;5069185;28;20779;-67
2023/08/04 02:31:25;;;;;;;1.35;0.60;;;15.40;99.90;;;;;;5069228;28;20043;-66
2023/08/04 02:33:52;;;;;;;0.90;0.52;;;15.40;99.90;;;;;;5051984;28;20045;-67
2023/08/04 02:36:19;;;;;;;0.40;0.30;;;15.30;99.90;;;;;;5052236;28;20105;-67
2023/08/04 02:38:45;;;;;;;0.38;0.20;;;15.30;99.90;;;;;;5051709;28;20079;-67
2023/08/04 02:41:11;;;;;;;1.20;0.57;;;15.20;99.90;;;;;;5049759;28;20049;-66
2023/08/04 02:43:37;;;;;;;0.80;0.43;;;15.20;99.90;;;;;;5048756;28;20044;-66
2023/08/04 02:46:03;;;;;;;0.50;0.30;;;15.10;99.90;;;;;;5050110;28;20033;-67
2023/08/04 02:48:30;;;;;;;1.08;0.30;;;15.10;99.90;;;;;;5049751;28;20048;-66
2023/08/04 02:51:04;;;;;;;0.60;0.40;;;15.10;99.90;;;;;;5048854;28;20040;-67
2023/08/04 02:53:32;;;;;;;1.90;0.80;;;15.00;99.90;;;;;;5048484;28;20055;-66
2023/08/04 02:55:58;;;;;;;0.95;0.40;;;14.90;99.90;;;;;;5047956;28;20052;-66
2023/08/04 02:58:25;;;;;;;1.92;0.52;;;14.90;99.90;;;;;;5048641;28;20040;-66
2023/08/04 03:00:51;;;;;;;0.82;0.38;;;14.90;99.90;;;;;;5057331;28;20071;-66
2023/08/04 03:03:17;;;;;;;0.80;0.52;;;14.90;99.90;;;;;;5048723;28;20052;-67
2023/08/04 03:05:43;;;;;;;0.82;0.40;;;14.80;99.90;;;;;;5048727;28;20044;-66
2023/08/04 03:08:09;;;;;;;4.43;0.63;;;14.80;99.90;;;;;;5048339;28;20037;-66
2023/08/04 03:10:40;;;;;;;0.75;0.35;;;14.80;99.90;;;;;;5052423;28;20087;-66
2023/08/04 03:13:06;;;;;;;0.73;0.38;;;14.80;99.90;;;;;;5053536;28;20120;-66
2023/08/04 03:15:31;;;;;;;1.50;0.70;;;14.90;99.90;;;;;;5051547;28;20132;-66
2023/08/04 03:17:57;;;;;;;0.82;0.50;;;14.90;99.90;;;;;;5052171;28;20127;-67
2023/08/04 03:20:23;;;;;;;0.73;0.32;;;14.90;99.90;;;;;;5053582;28;20047;-66
2023/08/04 03:22:49;;;;;;;0.52;0.32;;;14.90;99.90;;;;;;5064050;28;20044;-67
2023/08/04 03:25:14;;;;;;;0.70;0.28;;;14.90;99.90;;;;;;5073453;28;20102;-67
2023/08/04 03:27:40;;;;;;;1.88;0.40;;;15.00;99.90;;;;;;5073192;28;20045;-67
2023/08/04 03:30:07;;;;;;;3.13;0.65;;;15.00;99.90;;;;;;5073104;28;20493;-66
2023/08/04 03:32:32;;;;;;;1.00;0.40;;;15.00;99.90;;;;;;5072157;28;20040;-67
2023/08/04 03:34:58;;;;;;;1.42;0.47;;;15.00;99.90;;;;;;5056341;28;20507;-66
2023/08/04 03:37:24;;;;;;;1.25;0.60;;;15.00;99.90;;;;;;5052652;28;20421;-66
2023/08/04 03:39:49;;;;;;;0.75;0.45;;;15.00;99.90;;;;;;5051756;28;20120;-66
2023/08/04 03:42:15;;;;;;;0.52;0.38;;;15.00;99.90;;;;;;5052916;28;20037;-67
2023/08/04 03:44:41;;;;;;;0.98;0.47;;;15.00;99.90;;;;;;5052326;28;20036;-66
2023/08/04 03:47:07;;;;;;;0.82;0.50;;;14.90;99.90;;;;;;5035113;28;20076;-66
2023/08/04 03:49:33;;;;;;;0.88;0.40;;;14.90;99.90;;;;;;5051873;28;20057;-66
2023/08/04 03:51:58;;;;;;;1.63;0.43;;;14.90;99.90;;;;;;5050929;28;20473;-66
2023/08/04 03:54:24;;;;;;;1.20;0.60;;;14.90;99.90;;;;;;5051710;28;20545;-66
2023/08/04 03:56:50;;;;;;;1.17;0.40;;;14.90;99.90;;;;;;5052160;28;20623;-66
2023/08/04 03:59:15;;;;;;;1.27;0.63;;;15.00;99.90;;;;;;5057045;28;20042;-66
2023/08/04 04:01:41;;;;;;;0.20;0.10;;;15.00;99.90;;;;;;5066786;28;20037;-66
2023/08/04 04:04:07;;;;;;;0.98;0.55;;;15.00;99.90;;;;;;5069586;28;20041;-66
2023/08/04 04:06:33;;;;;;;1.35;0.35;;;15.00;99.90;;;;;;5051319;28;20040;-66
2023/08/04 04:08:58;;;;;;;0.63;0.40;;;15.10;99.90;;;;;;5052533;28;20081;-66
2023/08/04 04:11:24;;;;;;;0.50;0.30;;;15.10;99.90;;;;;;5050804;28;20374;-66
2023/08/04 04:13:50;;;;;;;0.73;0.30;;;15.10;99.90;;;;;;5052481;28;20412;-66
2023/08/04 04:16:16;;;;;;;1.27;0.20;;;15.20;99.90;;;;;;5034433;28;20381;-66
2023/08/04 04:18:41;;;;;;;4.00;0.47;;;15.10;99.90;;;;;;5050743;28;20041;-66
2023/08/04 04:21:07;;;;;;;1.38;0.50;;;15.20;99.90;;;;;;5050711;28;20037;-66
2023/08/04 04:23:33;;;;;;;0.50;0.30;;;15.20;99.90;;;;;;5051183;28;20060;-66
2023/08/04 04:25:59;;;;;;;1.35;0.55;;;15.30;99.90;;;;;;5050581;28;20607;-65
2023/08/04 04:28:24;;;;;;;0.73;0.40;;;15.30;99.90;;;;;;5050823;28;20508;-66
2023/08/04 04:30:50;;;;;;;0.13;0.13;;;15.30;99.90;;;;;;5050715;28;20128;-66
2023/08/04 04:33:16;;;;;;;1.13;0.47;;;15.30;99.90;;;;;;5050362;28;20041;-66
2023/08/04 04:35:51;;;;;;;1.27;0.30;;;15.30;99.90;;;;;;5050800;28;20461;-66
2023/08/04 04:38:17;;;;;;;0.10;0.10;;;15.30;99.90;;;;;;5050707;28;20047;-66
2023/08/04 04:40:42;;;;;;;0.22;0.20;;;15.40;99.90;;;;;;5050272;28;20120;-66
2023/08/04 04:43:08;;;;;;;0.52;0.20;;;15.40;99.90;;;;;;5050617;28;20385;-66
2023/08/04 04:45:34;;;;;;;4.13;0.50;;;15.40;99.90;;;;;;5052020;28;20144;-66
2023/08/04 04:48:01;;;;;;;0.43;0.30;;;15.40;99.90;;;;;;5048674;28;20048;-66
2023/08/04 04:50:26;;;;;;;0.60;0.20;;;15.40;99.90;;;;;;5050402;28;20053;-66
2023/08/04 04:52:52;;;;;;;0.43;0.32;;;15.40;99.90;;;;;;5049611;28;20095;-66
2023/08/04 04:55:18;;;;;;;0.35;0.20;;;15.40;99.90;;;;;;5050269;28;20047;-66
2023/08/04 04:57:44;;;;;;;0.47;0.35;;;15.50;99.90;;;;;;5064572;28;20396;-66
2023/08/04 05:00:10;;;;;;;0.73;0.17;;;15.50;99.90;;;;;;5067451;28;20036;-66
2023/08/04 05:02:36;;;;;;;0.30;0.20;;;15.50;99.90;;;;;;5032458;28;20041;-66
2023/08/04 05:05:02;;;;;;;0.60;0.32;;;15.50;99.90;;;;;;5050289;28;20044;-66
2023/08/04 05:07:28;;;;;;;0.45;0.20;;;15.60;99.90;;;;;;5048561;28;20055;-66
2023/08/04 05:09:54;;;;;;;0.10;0.10;;;15.60;99.90;;;;;;5048919;28;20112;-66
2023/08/04 05:12:20;;;;;;;0.43;0.20;;;15.60;99.90;;;;;;5048849;28;20489;-66
2023/08/04 05:14:46;;;;;;;0.47;0.20;;;15.70;99.90;;;;;;5048212;28;20152;-66
2023/08/04 05:17:12;;;;;;;1.90;0.20;;;15.70;99.90;;;;;;5048715;28;20045;-66
2023/08/04 05:19:38;;;;;;;1.50;0.30;;;15.70;99.90;;;;;;5048732;28;20489;-66
2023/08/04 05:22:04;;;;;;;0.45;0.25;;;15.70;99.90;;;;;;5048084;28;20097;-66
2023/08/04 05:24:30;;;;;;;0.43;0.10;;;15.70;99.90;;;;;;5048846;28;20056;-66
2023/08/04 05:26:55;;;;;;;0.10;0.10;;;15.80;99.90;;;;;;5048563;28;20037;-66
2023/08/04 05:29:21;;;;;;;0.00;0.00;;;15.90;99.90;;;;;;5047971;28;20044;-66
2023/08/04 05:31:47;;;;;;;0.68;0.38;;;15.90;99.90;;;;;;5047603;28;20048;-66
2023/08/04 05:34:13;;;;;;;0.20;0.20;;;16.00;99.90;;;;;;5048598;28;20080;-66
2023/08/04 05:36:39;;;;;;;0.68;0.30;;;16.00;99.90;;;;;;5048046;28;20037;-65
2023/08/04 05:39:04;;;;;;;0.45;0.13;;;16.00;99.90;;;;;;5048353;28;20400;-65
2023/08/04 05:41:30;;;;;;;2.78;0.30;;;16.10;99.90;;;;;;5048355;28;20056;-65
2023/08/04 05:43:56;;;;;;;0.50;0.20;;;16.10;99.90;;;;;;5048966;28;20120;-65
2023/08/04 05:46:22;;;;;;;0.40;0.20;;;16.10;99.90;;;;;;5049546;28;20119;-65
2023/08/04 05:48:47;;;;;;;0.40;0.40;;;16.20;99.90;;;;;;5049049;28;20087;-65
2023/08/04 05:51:15;;;;;;;0.95;0.30;;;16.20;99.90;;;;;;5049267;28;20076;-66
2023/08/04 05:53:41;;;;;;;1.17;0.40;;;16.30;99.90;;;;;;5060852;28;20052;-65
2023/08/04 05:56:07;;;;;;;1.05;0.20;;;16.30;99.90;;;;;;5070175;28;20384;-65
2023/08/04 05:58:33;;;;;;;0.77;0.30;;;16.30;99.90;;;;;;5052433;28;20033;-64
2023/08/04 06:00:58;;;;;;;1.15;0.57;;;16.30;99.90;;;;;;5030822;28;20389;-65
2023/08/04 06:03:24;;;;;;;0.57;0.30;;;16.40;99.90;;;;;;5030184;28;20034;-66
2023/08/04 06:05:50;;;;;;;0.70;0.25;;;16.40;99.90;;;;;;5029350;28;20076;-66
2023/08/04 06:08:16;;;;;;;0.15;0.10;;;16.50;99.90;;;;;;5030563;28;20045;-66
2023/08/04 06:10:42;;;;;;;0.88;0.50;;;16.50;99.90;;;;;;5030154;28;20041;-66
2023/08/04 06:13:07;;;;;;;0.70;0.20;;;16.60;99.90;;;;;;5029275;28;20045;-66
2023/08/04 06:15:33;;;;;;;0.55;0.40;;;16.60;99.90;;;;;;5012752;28;20046;-66
2023/08/04 06:17:59;;;;;;;1.63;0.22;;;16.70;99.90;;;;;;5028677;28;20083;-66
2023/08/04 06:20:25;;;;;;;0.85;0.30;;;16.70;99.90;;;;;;5029198;28;20034;-66
2023/08/04 06:22:51;;;;;;;0.65;0.40;;;16.70;99.90;;;;;;5038586;28;20044;-66
2023/08/04 06:25:17;;;;;;;0.43;0.20;;;16.70;99.90;;;;;;5048491;28;20049;-66
2023/08/04 06:27:43;;;;;;;1.80;0.45;;;16.80;99.90;;;;;;5050330;28;20048;-66
2023/08/04 06:30:09;;;;;;;1.15;0.60;;;16.80;99.90;;;;;;5050249;28;20120;-66
2023/08/04 06:32:35;;;;;;;1.13;0.32;;;16.90;99.90;;;;;;5045786;28;20102;-66
2023/08/04 06:35:01;;;;;;;0.55;0.30;;;17.00;99.90;;;;;;5048656;28;20127;-66
2023/08/04 06:37:27;;;;;;;1.00;0.45;;;17.00;99.90;;;;;;5050149;28;20048;-66
2023/08/04 06:39:53;;;;;;;0.47;0.20;;;16.90;99.90;;;;;;5049496;28;20051;-66
2023/08/04 06:42:19;;;;;;;1.48;0.40;;;16.90;99.90;;;;;;5048856;28;20112;-65
2023/08/04 06:44:45;;;;;;;0.50;0.30;;;16.80;99.90;;;;;;5052894;28;20461;-65
2023/08/04 06:47:12;;;;;;;0.85;0.40;;;16.80;99.90;;;;;;5054023;28;20417;-65
2023/08/04 06:49:38;;;;;;;1.23;0.57;;;16.70;99.90;;;;;;5062308;28;20029;-65
2023/08/04 06:52:04;;;;;;;1.15;0.40;;;16.70;99.90;;;;;;5053219;28;20385;-66
2023/08/04 06:54:30;;;;;;;1.65;0.60;;;16.70;99.90;;;;;;5052607;28;20059;-65
2023/08/04 06:56:56;;;;;;;6.25;0.70;;;16.60;99.90;;;;;;5052575;28;20041;-65
2023/08/04 06:59:22;;;;;;;5.55;0.77;;;16.60;99.90;;;;;;5059847;28;20039;-66
2023/08/04 07:01:47;;;;;;;2.75;0.32;;;16.70;99.90;;;;;;5073678;28;20437;-66
2023/08/04 07:04:13;;;;;;;0.68;0.43;;;16.70;99.90;;;;;;5072520;28;20033;-66
2023/08/04 07:06:39;;;;;;;1.73;0.40;;;16.80;99.90;;;;;;5071822;28;20111;-65
2023/08/04 07:09:05;;;;;;;1.88;0.77;;;16.90;99.90;;;;;;5073862;28;20047;-65
2023/08/04 07:11:31;;;;;;;0.93;0.52;;;17.00;99.90;;;;;;5068922;28;20037;-65
2023/08/04 07:13:56;;;;;;;0.65;0.40;;;17.10;99.90;;;;;;5052067;28;20033;-65
2023/08/04 07:16:22;;;;;;;1.58;0.77;;;17.10;99.90;;;;;;5053061;28;20041;-65
2023/08/04 07:18:48;;;;;;;1.48;0.82;;;17.20;99.90;;;;;;5051794;28;20044;-65
2023/08/04 07:21:14;;;;;;;1.52;0.52;;;17.30;99.90;;;;;;5051086;28;20473;-65
2023/08/04 07:23:41;;;;;;;1.27;0.65;;;17.40;99.90;;;;;;5051407;28;20044;-65
2023/08/04 07:26:08;;;;;;;1.27;0.50;;;17.60;99.90;;;;;;5053456;28;20174;-65
2023/08/04 07:28:35;;;;;;;2.38;0.68;;;17.80;99.90;;;;;;5052851;28;20040;-65
2023/08/04 07:31:05;;;;;;;2.45;0.50;;;17.80;99.90;;;;;;5052082;28;20676;-65
2023/08/04 07:33:31;;;;;;;1.48;0.65;;;17.90;99.90;;;;;;5053245;28;20052;-65
2023/08/04 07:35:58;;;;;;;1.42;0.68;;;18.00;99.90;;;;;;5052774;28;20041;-65
2023/08/04 07:38:25;;;;;;;1.15;0.40;;;18.10;99.90;;;;;;5035415;28;20040;-65
2023/08/04 07:40:51;;;;;;;0.88;0.52;;;18.20;99.90;;;;;;5051319;28;20150;-65
2023/08/04 07:43:17;;;;;;;1.52;0.45;;;18.40;99.90;;;;;;5053196;28;20728;-65
2023/08/04 07:45:43;;;;;;;1.60;0.40;;;18.50;99.90;;;;;;5059476;28;20126;-65
2023/08/04 07:48:09;;;;;;;0.80;0.43;;;18.40;99.90;;;;;;5072428;28;20036;-65
2023/08/04 07:50:39;;;;;;;0.73;0.57;;;18.40;99.90;;;;;;5057382;28;20099;-65
2023/08/04 07:53:05;;;;;;;0.50;0.40;;;18.30;99.90;;;;;;5052595;28;20045;-62
2023/08/04 07:55:36;;;;;;;0.95;0.43;;;18.20;99.90;;;;;;5051207;28;20076;-66
2023/08/04 07:58:11;;;;;;;1.33;0.50;;;17.90;99.90;;;;;;5051591;28;20044;-65
2023/08/04 08:00:37;;;;;;;1.23;0.40;;;17.60;99.90;;;;;;5050794;28;20446;-65
2023/08/04 08:03:03;;;;;;;0.40;0.20;;;17.40;99.90;;;;;;5050371;28;20044;-65
2023/08/04 08:05:28;;;;;;;0.75;0.30;;;17.20;99.90;;;;;;5031617;28;20095;-64
2023/08/04 08:07:54;;;;;;;0.45;0.20;;;17.00;99.90;;;;;;5030012;28;20051;-64
2023/08/04 08:10:20;;;;;;;0.75;0.40;;;17.00;99.90;;;;;;5029448;28;20045;-63
2023/08/04 08:12:46;;;;;;;0.43;0.20;;;17.00;99.90;;;;;;5031299;28;20080;-63
2023/08/04 08:15:12;;;;;;;1.92;0.68;;;17.00;99.90;;;;;;5039160;28;20159;-63
2023/08/04 08:17:38;;;;;;;0.68;0.40;;;17.10;99.90;;;;;;5048133;28;20091;-63
2023/08/04 08:20:05;;;;;;;0.63;0.40;;;17.10;99.90;;;;;;5050809;28;20037;-63
2023/08/04 08:22:31;;;;;;;1.20;0.68;;;17.20;99.90;;;;;;5050768;28;20045;-63
2023/08/04 08:24:57;;;;;;;1.48;0.68;;;17.30;99.90;;;;;;5050175;28;20179;-63
2023/08/04 08:27:26;;;;;;;0.80;0.43;;;17.30;99.90;;;;;;5050780;28;20067;-63
2023/08/04 08:29:54;;;;;;;3.65;0.60;;;17.40;99.90;;;;;;5051071;28;20389;-63
2023/08/04 08:32:20;;;;;;;0.30;0.22;;;17.50;99.90;;;;;;5050638;28;20044;-63
2023/08/04 08:34:45;;;;;;;3.33;0.77;;;17.60;99.90;;;;;;5050644;28;20045;-62
2023/08/04 08:37:11;;;;;;;1.05;0.55;;;17.80;99.90;;;;;;5051344;28;20400;-62
2023/08/04 08:39:37;;;;;;;3.50;0.63;;;18.10;99.90;;;;;;5050626;28;20044;-62
2023/08/04 08:42:03;;;;;;;1.38;0.50;;;18.40;99.90;;;;;;5059401;28;20091;-62
2023/08/04 08:44:29;;;;;;;1.10;0.40;;;18.70;99.90;;;;;;5070028;28;20055;-62
2023/08/04 08:46:55;;;;;;;1.75;0.63;;;18.90;99.90;;;;;;5055388;28;20041;-61
2023/08/04 08:49:26;;;;;;;4.05;0.50;;;19.10;99.90;;;;;;5050198;28;20102;-62
2023/08/04 08:51:56;;;;;;;3.55;0.70;;;19.30;99.90;;;;;;5050760;28;20116;-62
2023/08/04 08:54:22;;;;;;;;;;;19.50;99.90;;;;;;5052056;28;20045;-64
2023/08/04 08:56:50;;;;;;;0.85;0.60;;;19.60;99.90;;;;;;5049178;28;20348;-63
2023/08/04 08:59:16;;;;;;;6.28;1.33;;;19.70;99.90;;;;;;5053750;28;20086;-65
2023/08/04 09:01:41;;;;;;;1.27;0.50;;;19.80;99.90;;;;;;5069916;28;20517;-64
2023/08/04 09:04:07;;;;;;;0.50;0.30;;;20.00;99.90;;;;;;5070254;28;20052;-63
2023/08/04 09:06:33;;;;;;;0.55;0.22;;;19.60;99.90;;;;;;5058257;28;20508;-63
2023/08/04 09:09:01;;;;;;;0.30;0.10;;;19.10;99.90;;;;;;5049765;28;20045;-63
2023/08/04 09:11:29;;;;;;;0.20;0.13;;;18.60;99.90;;;;;;5049362;28;20049;-63
2023/08/04 09:13:56;;;;;;;0.70;0.28;;;18.30;99.90;;;;;;5046980;28;20045;-63
2023/08/04 09:16:36;;;;;;;2.45;0.45;;;18.00;99.90;;;;;;5048646;28;20464;-63
2023/08/04 09:19:06;;;;;;;0.40;0.22;;;17.80;99.90;;;;;;5049499;28;20043;-63
2023/08/04 09:21:36;;;;;;;1.65;0.30;;;17.90;99.90;;;;;;5049826;28;20370;-63
2023/08/04 09:24:03;;;;;;;0.43;0.20;;;18.10;99.90;;;;;;5048602;28;20052;-62
2023/08/04 09:26:46;;;;;;;1.13;0.40;;;18.50;99.90;;;;;;5049456;28;20041;-63
2023/08/04 09:29:14;;;;;;;1.40;0.38;;;19.00;99.90;;;;;;5048826;28;20397;-63
2023/08/04 09:31:46;;;;;;;2.58;0.38;;;19.50;99.90;;;;;;5049566;28;20080;-64
2023/08/04 09:34:12;;;;;;;1.38;0.68;;;20.00;99.90;;;;;;5048100;28;20044;-63
2023/08/04 09:36:44;;;;;;;2.00;0.40;;;20.10;99.90;;;;;;5048254;28;20455;-64
2023/08/04 09:39:10;;;;;;;2.72;0.52;;;20.10;99.90;;;;;;5064199;28;20037;-63
2023/08/04 09:41:44;;;;;;;1.60;0.80;;;20.00;99.90;;;;;;5065328;28;20064;-64
2023/08/04 09:44:10;;;;;;;2.63;0.47;;;19.80;99.90;;;;;;5049599;28;20374;-63
2023/08/04 09:46:40;;;;;;;0.75;0.40;;;19.60;99.90;;;;;;5048494;28;20441;-64
2023/08/04 09:49:07;;;;;;;1.10;0.60;;;19.60;99.90;;;;;;5048290;28;20489;-64
2023/08/04 09:51:43;;;;;;;0.93;0.43;;;19.60;99.90;;;;;;5049444;28;20373;-63
2023/08/04 09:54:09;;;;;;;2.40;0.68;;;19.90;99.90;;;;;;5047446;28;20045;-64
2023/08/04 09:56:36;;;;;;;0.82;0.40;;;20.30;99.90;;;;;;5049427;28;20045;-65
2023/08/04 09:59:03;;;;;;;0.85;0.32;;;20.80;99.90;;;;;;5052095;28;20033;-65
2023/08/04 10:01:30;;;;;;;0.95;0.70;;;21.20;99.90;;;;;;5067479;28;20045;-65
2023/08/04 10:03:57;;;;;;;0.95;0.52;;;21.20;99.90;;;;;;5068279;28;20044;-64
2023/08/04 10:06:26;;;;;;;2.50;0.68;;;21.00;99.90;;;;;;5067996;28;20052;-65
2023/08/04 10:08:55;;;;;;;;;;;20.80;99.90;;;;;;5051167;28;20037;-64
2023/08/04 10:11:21;;;;;;;2.92;0.45;;;20.50;99.90;;;;;;5049513;28;19917;-63
2023/08/04 10:13:54;;;;;;;1.80;0.57;;;20.00;99.90;;;;;;5049248;28;20041;-63
2023/08/04 10:16:30;;;;;;;4.03;0.60;;;19.60;99.90;;;;;;5047336;28;20158;-63
2023/08/04 10:19:02;;;;;;;3.95;0.40;;;19.20;99.90;;;;;;5047578;28;20045;-63
2023/08/04 10:21:33;;;;;;;2.08;0.40;;;19.00;99.90;;;;;;5048084;28;20080;-63
2023/08/04 10:23:59;;;;;;;0.88;0.50;;;18.90;99.90;;;;;;5047329;28;20037;-64
2023/08/04 10:26:25;;;;;;;0.63;0.28;;;18.80;99.90;;;;;;5048818;28;20517;-63
2023/08/04 10:29:08;;;;;;;1.58;0.55;;;18.90;99.90;;;;;;5047038;28;20102;-63
2023/08/04 10:31:52;;;;;;;0.90;0.50;;;19.10;99.90;;;;;;5049158;28;20507;-64
2023/08/04 10:34:25;;;;;;;1.85;0.60;;;19.40;99.90;;;;;;5041846;28;20135;-65
2023/08/04 10:37:15;;;;;;;0.98;0.60;;;19.70;99.90;;;;;;5027009;28;20116;-64
2023/08/04 10:39:57;;;;;;;0.80;0.47;;;19.90;99.90;;;;;;5045078;28;20108;-65
2023/08/04 10:42:27;;;;;;;0.85;0.40;;;19.90;99.90;;;;;;5047612;28;20033;-64
2023/08/04 10:45:05;;;;;;;0.90;0.40;;;20.00;99.90;;;;;;5046950;28;20042;-64
2023/08/04 10:47:35;;;;;;;1.48;0.43;;;20.10;99.90;;;;;;5048367;28;20080;-65
2023/08/04 10:50:03;;;;;;;1.45;0.40;;;20.10;99.90;;;;;;5047885;28;20055;-65
2023/08/04 10:52:30;;;;;;;1.88;0.60;;;20.50;99.90;;;;;;5049253;28;20131;-65
2023/08/04 10:54:56;;;;;;;0.77;0.55;;;21.00;99.90;;;;;;5048204;28;20044;-65
2023/08/04 10:57:27;;;;;;;1.60;0.60;;;21.40;99.90;;;;;;5031150;28;20045;-65
2023/08/04 10:59:54;;;;;;;0.70;0.30;;;21.60;99.90;;;;;;5040827;28;20436;-65
2023/08/04 11:02:22;;;;;;;3.38;0.38;;;21.70;99.90;;;;;;5028338;28;20592;-65
2023/08/04 11:04:48;;;;;;;5.25;0.45;;;21.70;99.90;;;;;;5044560;28;20424;-65
2023/08/04 11:07:15;;;;;;;5.07;0.85;;;21.90;99.90;;;;;;5048301;28;20045;-65
2023/08/04 11:09:44;;;;;;;1.85;0.47;;;22.20;99.90;;;;;;5048132;28;20037;-65
2023/08/04 11:12:10;;;;;;;0.50;0.35;;;22.40;99.90;;;;;;5048810;28;20468;-63
2023/08/04 11:14:36;;;;;;;1.00;0.40;;;22.40;99.90;;;;;;5054950;28;20137;-64
2023/08/04 11:17:13;;;;;;;1.27;0.45;;;22.30;99.90;;;;;;5069398;28;20067;-65
2023/08/04 11:19:38;;;;;;;2.08;0.47;;;22.00;99.90;;;;;;5067477;28;20075;-65
2023/08/04 11:22:16;;;;;;;0.93;0.20;;;21.60;99.90;;;;;;5068310;28;20041;-65
2023/08/04 11:24:43;;;;;;;0.30;0.20;;;21.20;99.90;;;;;;5067668;28;20079;-65
2023/08/04 11:27:11;;;;;;;0.85;0.35;;;20.80;99.90;;;;;;5068131;28;20053;-65
2023/08/04 11:29:38;;;;;;;3.60;0.88;;;20.40;99.90;;;;;;5065675;28;20416;-65
2023/08/04 11:32:20;;;;;;;2.15;0.60;;;20.20;99.90;;;;;;5049200;28;20126;-65
2023/08/04 11:34:46;;;;;;;1.20;0.35;;;19.90;99.90;;;;;;5047595;28;20045;-65
2023/08/04 11:37:11;;;;;;;2.05;0.40;;;19.80;99.90;;;;;;5050584;28;20124;-65
2023/08/04 11:39:40;;;;;;;2.20;0.82;;;19.80;99.90;;;;;;5049966;28;20044;-65
2023/08/04 11:42:10;;;;;;;5.60;0.70;;;19.80;99.90;;;;;;5050549;28;20044;-65
2023/08/04 11:44:36;;;;;;;3.13;0.73;;;19.80;99.90;;;;;;5050717;28;20036;-65
2023/08/04 11:47:03;;;;;;;2.28;0.60;;;19.70;99.90;;;;;;5041760;28;20045;-65
2023/08/04 11:49:29;;;;;;;3.47;0.50;;;19.80;99.90;;;;;;5030614;28;20490;-66
2023/08/04 11:51:55;;;;;;;0.63;0.30;;;20.00;99.90;;;;;;5043844;28;20044;-66
2023/08/04 11:54:23;;;;;;;1.55;0.45;;;20.30;99.90;;;;;;5030406;28;20060;-65
2023/08/04 11:56:57;;;;;;;1.00;0.30;;;20.60;99.90;;;;;;5030360;28;20053;-65
2023/08/04 11:59:23;;;;;;;2.38;0.40;;;21.00;99.90;;;;;;5046101;28;20455;-66
2023/08/04 12:01:49;;;;;;;0.63;0.25;;;21.40;99.90;;;;;;5049374;28;20079;-65
2023/08/04 12:04:33;;;;;;;2.30;0.43;;;21.70;99.90;;;;;;5050051;28;20123;-65
2023/08/04 12:07:04;;;;;;;0.70;0.30;;;21.80;99.90;;;;;;5033008;28;20110;-65
2023/08/04 12:09:31;;;;;;;1.33;0.50;;;21.70;99.90;;;;;;5050385;28;20440;-65
2023/08/04 12:11:57;;;;;;;0.73;0.25;;;21.60;99.90;;;;;;5049973;28;20074;-65
2023/08/04 12:14:23;;;;;;;1.70;0.30;;;21.60;99.90;;;;;;5049227;28;20291;-64
2023/08/04 12:16:56;;;;;;;0.43;0.28;;;21.80;99.90;;;;;;5049794;28;20129;-65
2023/08/04 12:19:24;;;;;;;1.08;0.30;;;21.80;99.90;;;;;;5051468;28;20037;-66
2023/08/04 12:21:51;;;;;;;1.60;0.35;;;21.60;99.90;;;;;;5050564;28;20044;-65
2023/08/04 12:24:18;;;;;;;4.85;0.98;;;21.30;99.90;;;;;;5049634;28;20041;-65
2023/08/04 12:26:43;;;;;;;1.90;0.32;;;21.10;99.90;;;;;;5049403;28;20045;-65
2023/08/04 12:29:10;;;;;;;2.08;0.45;;;20.90;99.90;;;;;;5032825;28;20040;-66
2023/08/04 12:31:37;;;;;;;0.95;0.50;;;20.60;99.90;;;;;;5050787;28;20037;-66
2023/08/04 12:34:04;;;;;;;0.68;0.38;;;20.50;99.90;;;;;;5049688;28;20055;-66
2023/08/04 12:36:30;;;;;;;1.48;0.38;;;20.60;99.90;;;;;;5048807;28;20045;-65
2023/08/04 12:38:56;;;;;;;3.47;0.52;;;20.90;99.90;;;;;;5049462;28;20045;-65
2023/08/04 12:41:21;;;;;;;3.10;0.80;;;21.30;99.90;;;;;;5050100;28;20052;-64
2023/08/04 12:43:47;;;;;;;0.43;0.30;;;21.60;99.90;;;;;;5048787;28;20127;-64
2023/08/04 12:46:13;;;;;;;2.67;0.40;;;22.00;99.90;;;;;;5050510;28;20174;-64
2023/08/04 12:48:39;;;;;;;0.65;0.22;;;22.10;99.90;;;;;;5050211;28;20075;-64